sensor_id;sensor_type;location;lat;lon;timestamp;temperature;humidity
74520;DHT22;63002;48.134;-1.948;2023-06-22T05:02:15;25.00;53.60
74520;DHT22;63002;48.134;-1.948;2023-06-22T05:04:40;25.00;53.60
74520;DHT22;63002;48.134;-1.948;2023-06-22T05:07:06;24.90;53.70
74520;DHT22;63002;48.134;-1.948;2023-06-22T05:09:32;24.90;53.60
74520;DHT22;63002;48.134;-1.948;2023-06-22T05:11:59;24.90;53.50
74520;DHT22;63002;48.134;-1.948;2023-06-22T05:14:28;25.00;53.50
74520;DHT22;63002;48.134;-1.948;2023-06-22T05:16:53;25.00;53.40
74520;DHT22;63002;48.134;-1.948;2023-06-22T05:19:19;25.00;53.40
74520;DHT22;63002;48.134;-1.948;2023-06-22T05:21:45;24.90;53.30
74520;DHT22;63002;48.134;-1.948;2023-06-22T05:24:11;25.00;53.30
74520;DHT22;63002;48.134;-1.948;2023-06-22T05:26:37;24.90;53.30
74520;DHT22;63002;48.134;-1.948;2023-06-22T05:29:03;24.90;53.30
74520;DHT22;63002;48.134;-1.948;2023-06-22T05:31:29;24.50;53.30
74520;DHT22;63002;48.134;-1.948;2023-06-22T05:33:55;24.10;54.10
74520;DHT22;63002;48.134;-1.948;2023-06-22T05:36:21;24.00;54.60
74520;DHT22;63002;48.134;-1.948;2023-06-22T05:38:51;23.90;54.90
74520;DHT22;63002;48.134;-1.948;2023-06-22T05:41:18;23.60;55.30
74520;DHT22;63002;48.134;-1.948;2023-06-22T05:43:44;23.50;55.60
74520;DHT22;63002;48.134;-1.948;2023-06-22T05:46:09;23.20;56.10
74520;DHT22;63002;48.134;-1.948;2023-06-22T05:48:35;23.10;56.60
74520;DHT22;63002;48.134;-1.948;2023-06-22T05:51:01;23.10;56.80
74520;DHT22;63002;48.134;-1.948;2023-06-22T05:53:27;23.30;56.50
74520;DHT22;63002;48.134;-1.948;2023-06-22T05:55:54;23.50;56.20
74520;DHT22;63002;48.134;-1.948;2023-06-22T05:58:19;23.70;55.70
74520;DHT22;63002;48.134;-1.948;2023-06-22T06:00:45;23.70;55.50
74520;DHT22;63002;48.134;-1.948;2023-06-22T06:03:12;23.80;55.50
74520;DHT22;63002;48.134;-1.948;2023-06-22T06:05:38;23.80;55.40
74520;DHT22;63002;48.134;-1.948;2023-06-22T06:08:05;23.80;55.40
74520;DHT22;63002;48.134;-1.948;2023-06-22T06:10:32;23.80;55.30
74520;DHT22;63002;48.134;-1.948;2023-06-22T06:12:59;24.00;55.00
74520;DHT22;63002;48.134;-1.948;2023-06-22T06:15:27;24.00;55.20
74520;DHT22;63002;48.134;-1.948;2023-06-22T06:17:53;24.10;55.50
74520;DHT22;63002;48.134;-1.948;2023-06-22T06:20:21;24.30;55.20
74520;DHT22;63002;48.134;-1.948;2023-06-22T06:22:48;24.30;55.00
74520;DHT22;63002;48.134;-1.948;2023-06-22T06:25:14;24.20;55.00
74520;DHT22;63002;48.134;-1.948;2023-06-22T06:27:44;24.20;55.10
74520;DHT22;63002;48.134;-1.948;2023-06-22T06:30:14;24.20;55.00
74520;DHT22;63002;48.134;-1.948;2023-06-22T06:32:41;24.20;54.90
74520;DHT22;63002;48.134;-1.948;2023-06-22T06:35:09;24.30;54.80
74520;DHT22;63002;48.134;-1.948;2023-06-22T06:37:40;24.20;54.80
74520;DHT22;63002;48.134;-1.948;2023-06-22T06:40:07;24.20;54.80
74520;DHT22;63002;48.134;-1.948;2023-06-22T06:42:40;24.30;54.60
74520;DHT22;63002;48.134;-1.948;2023-06-22T06:47:43;24.30;54.50
74520;DHT22;63002;48.134;-1.948;2023-06-22T06:50:09;24.30;54.60
74520;DHT22;63002;48.134;-1.948;2023-06-22T06:52:35;24.40;54.50
74520;DHT22;63002;48.134;-1.948;2023-06-22T06:55:01;24.40;54.40
74520;DHT22;63002;48.134;-1.948;2023-06-22T06:57:27;24.40;54.50
74520;DHT22;63002;48.134;-1.948;2023-06-22T06:59:55;24.40;54.40
74520;DHT22;63002;48.134;-1.948;2023-06-22T07:02:22;24.40;54.40
74520;DHT22;63002;48.134;-1.948;2023-06-22T07:04:47;24.40;54.30
74520;DHT22;63002;48.134;-1.948;2023-06-22T07:07:14;24.40;54.40
74520;DHT22;63002;48.134;-1.948;2023-06-22T07:09:40;24.50;54.20
74520;DHT22;63002;48.134;-1.948;2023-06-22T07:12:06;24.50;54.20
74520;DHT22;63002;48.134;-1.948;2023-06-22T07:14:32;24.50;54.20
74520;DHT22;63002;48.134;-1.948;2023-06-22T07:16:58;24.50;54.20
74520;DHT22;63002;48.134;-1.948;2023-06-22T07:19:27;24.60;54.10
74520;DHT22;63002;48.134;-1.948;2023-06-22T07:21:54;24.60;54.10
74520;DHT22;63002;48.134;-1.948;2023-06-22T07:24:21;24.60;54.00
74520;DHT22;63002;48.134;-1.948;2023-06-22T07:26:50;24.60;54.00
74520;DHT22;63002;48.134;-1.948;2023-06-22T07:29:20;24.60;54.00
74520;DHT22;63002;48.134;-1.948;2023-06-22T07:31:47;24.60;54.00
74520;DHT22;63002;48.134;-1.948;2023-06-22T07:34:13;24.60;54.00
74520;DHT22;63002;48.134;-1.948;2023-06-22T07:36:39;24.70;54.00
74520;DHT22;63002;48.134;-1.948;2023-06-22T07:39:04;24.70;54.00
74520;DHT22;63002;48.134;-1.948;2023-06-22T07:41:30;24.60;54.00
74520;DHT22;63002;48.134;-1.948;2023-06-22T07:43:56;24.60;54.00
74520;DHT22;63002;48.134;-1.948;2023-06-22T07:46:22;24.60;54.00
74520;DHT22;63002;48.134;-1.948;2023-06-22T07:48:48;24.60;54.00
74520;DHT22;63002;48.134;-1.948;2023-06-22T07:51:14;24.70;54.00
74520;DHT22;63002;48.134;-1.948;2023-06-22T07:53:44;24.70;53.90
74520;DHT22;63002;48.134;-1.948;2023-06-22T07:56:13;24.70;54.00
74520;DHT22;63002;48.134;-1.948;2023-06-22T07:58:44;24.70;53.90
74520;DHT22;63002;48.134;-1.948;2023-06-22T08:01:11;24.60;54.00
74520;DHT22;63002;48.134;-1.948;2023-06-22T08:03:37;24.60;54.00
74520;DHT22;63002;48.134;-1.948;2023-06-22T08:06:03;24.60;54.00
74520;DHT22;63002;48.134;-1.948;2023-06-22T08:08:28;24.70;54.00
74520;DHT22;63002;48.134;-1.948;2023-06-22T08:10:54;24.70;53.90
74520;DHT22;63002;48.134;-1.948;2023-06-22T08:13:20;24.70;53.90
74520;DHT22;63002;48.134;-1.948;2023-06-22T08:15:46;24.70;53.90
74520;DHT22;63002;48.134;-1.948;2023-06-22T08:18:11;24.70;54.00
74520;DHT22;63002;48.134;-1.948;2023-06-22T08:20:37;24.70;54.00
74520;DHT22;63002;48.134;-1.948;2023-06-22T08:23:03;24.60;54.00
74520;DHT22;63002;48.134;-1.948;2023-06-22T08:25:33;24.60;54.00
74520;DHT22;63002;48.134;-1.948;2023-06-22T08:28:00;24.60;54.00
74520;DHT22;63002;48.134;-1.948;2023-06-22T08:30:26;24.60;54.10
74520;DHT22;63002;48.134;-1.948;2023-06-22T08:32:52;24.60;54.10
74520;DHT22;63002;48.134;-1.948;2023-06-22T08:35:17;24.70;54.00
74520;DHT22;63002;48.134;-1.948;2023-06-22T08:37:43;24.70;54.00
74520;DHT22;63002;48.134;-1.948;2023-06-22T08:40:11;24.60;54.00
74520;DHT22;63002;48.134;-1.948;2023-06-22T08:42:37;24.70;54.00
74520;DHT22;63002;48.134;-1.948;2023-06-22T08:45:04;24.70;54.00
74520;DHT22;63002;48.134;-1.948;2023-06-22T08:47:30;24.70;54.00
74520;DHT22;63002;48.134;-1.948;2023-06-22T08:49:55;24.70;53.90
74520;DHT22;63002;48.134;-1.948;2023-06-22T08:52:23;24.70;53.90
74520;DHT22;63002;48.134;-1.948;2023-06-22T08:54:49;24.70;53.90
74520;DHT22;63002;48.134;-1.948;2023-06-22T08:57:15;24.70;54.00
74520;DHT22;63002;48.134;-1.948;2023-06-22T08:59:42;24.70;54.00
74520;DHT22;63002;48.134;-1.948;2023-06-22T09:02:07;24.80;53.90
74520;DHT22;63002;48.134;-1.948;2023-06-22T09:04:33;24.80;53.80
74520;DHT22;63002;48.134;-1.948;2023-06-22T09:07:02;24.70;53.90
74520;DHT22;63002;48.134;-1.948;2023-06-22T09:09:28;24.70;53.90
74520;DHT22;63002;48.134;-1.948;2023-06-22T09:11:54;24.70;53.90
74520;DHT22;63002;48.134;-1.948;2023-06-22T09:14:19;24.60;54.10
74520;DHT22;63002;48.134;-1.948;2023-06-22T09:16:45;24.70;54.10
74520;DHT22;63002;48.134;-1.948;2023-06-22T09:19:11;24.70;53.90
74520;DHT22;63002;48.134;-1.948;2023-06-22T09:21:37;24.70;53.90
74520;DHT22;63002;48.134;-1.948;2023-06-22T09:24:03;24.70;54.10
74520;DHT22;63002;48.134;-1.948;2023-06-22T09:26:29;24.70;54.00
74520;DHT22;63002;48.134;-1.948;2023-06-22T09:28:55;24.70;54.10
74520;DHT22;63002;48.134;-1.948;2023-06-22T09:31:21;24.70;54.10
74520;DHT22;63002;48.134;-1.948;2023-06-22T09:33:53;24.70;54.10
74520;DHT22;63002;48.134;-1.948;2023-06-22T09:36:22;24.60;54.20
74520;DHT22;63002;48.134;-1.948;2023-06-22T09:38:49;24.70;54.20
74520;DHT22;63002;48.134;-1.948;2023-06-22T09:41:20;24.70;54.10
74520;DHT22;63002;48.134;-1.948;2023-06-22T09:43:46;24.60;54.20
74520;DHT22;63002;48.134;-1.948;2023-06-22T09:46:15;24.60;54.20
74520;DHT22;63002;48.134;-1.948;2023-06-22T09:48:40;24.70;54.20
74520;DHT22;63002;48.134;-1.948;2023-06-22T09:51:06;24.60;54.20
74520;DHT22;63002;48.134;-1.948;2023-06-22T09:53:32;24.60;54.20
74520;DHT22;63002;48.134;-1.948;2023-06-22T09:55:57;24.70;54.10
74520;DHT22;63002;48.134;-1.948;2023-06-22T09:58:23;24.70;54.00
74520;DHT22;63002;48.134;-1.948;2023-06-22T10:00:49;24.70;54.00
74520;DHT22;63002;48.134;-1.948;2023-06-22T10:03:15;24.70;54.00
74520;DHT22;63002;48.134;-1.948;2023-06-22T10:05:40;24.70;53.90
74520;DHT22;63002;48.134;-1.948;2023-06-22T10:08:06;24.70;53.90
74520;DHT22;63002;48.134;-1.948;2023-06-22T10:10:34;24.70;54.00
74520;DHT22;63002;48.134;-1.948;2023-06-22T10:13:07;24.70;53.90
74520;DHT22;63002;48.134;-1.948;2023-06-22T10:15:34;24.70;53.90
74520;DHT22;63002;48.134;-1.948;2023-06-22T10:18:00;24.70;53.90
74520;DHT22;63002;48.134;-1.948;2023-06-22T10:20:26;24.70;53.90
74520;DHT22;63002;48.134;-1.948;2023-06-22T10:22:52;24.80;53.90
74520;DHT22;63002;48.134;-1.948;2023-06-22T10:25:17;24.80;53.90
74520;DHT22;63002;48.134;-1.948;2023-06-22T10:27:43;24.80;53.70
74520;DHT22;63002;48.134;-1.948;2023-06-22T10:30:11;24.80;53.70
74520;DHT22;63002;48.134;-1.948;2023-06-22T10:32:41;24.90;53.70
74520;DHT22;63002;48.134;-1.948;2023-06-22T10:35:08;24.80;53.70
74520;DHT22;63002;48.134;-1.948;2023-06-22T10:37:36;24.70;53.90
74520;DHT22;63002;48.134;-1.948;2023-06-22T10:40:02;24.80;53.90
74520;DHT22;63002;48.134;-1.948;2023-06-22T10:42:29;24.80;53.80
74520;DHT22;63002;48.134;-1.948;2023-06-22T10:44:55;24.80;53.80
74520;DHT22;63002;48.134;-1.948;2023-06-22T10:47:20;24.80;53.80
74520;DHT22;63002;48.134;-1.948;2023-06-22T10:49:46;24.80;53.80
74520;DHT22;63002;48.134;-1.948;2023-06-22T10:52:12;24.80;53.80
74520;DHT22;63002;48.134;-1.948;2023-06-22T10:54:38;24.80;53.80
74520;DHT22;63002;48.134;-1.948;2023-06-22T10:57:04;24.80;53.80
74520;DHT22;63002;48.134;-1.948;2023-06-22T10:59:30;24.90;53.80
74520;DHT22;63002;48.134;-1.948;2023-06-22T11:01:56;24.90;53.80
74520;DHT22;63002;48.134;-1.948;2023-06-22T11:04:23;24.90;53.70
74520;DHT22;63002;48.134;-1.948;2023-06-22T11:06:49;25.00;53.60
74520;DHT22;63002;48.134;-1.948;2023-06-22T11:09:16;25.00;53.50
74520;DHT22;63002;48.134;-1.948;2023-06-22T11:11:50;25.00;53.40
74520;DHT22;63002;48.134;-1.948;2023-06-22T11:14:16;25.00;53.50
74520;DHT22;63002;48.134;-1.948;2023-06-22T11:16:42;25.00;53.50
74520;DHT22;63002;48.134;-1.948;2023-06-22T11:19:08;25.00;53.60
74520;DHT22;63002;48.134;-1.948;2023-06-22T11:21:34;25.00;53.60
74520;DHT22;63002;48.134;-1.948;2023-06-22T11:24:00;25.00;53.60
74520;DHT22;63002;48.134;-1.948;2023-06-22T11:26:26;25.00;53.70
74520;DHT22;63002;48.134;-1.948;2023-06-22T11:28:55;25.00;53.60
74520;DHT22;63002;48.134;-1.948;2023-06-22T11:31:21;25.00;53.70
74520;DHT22;63002;48.134;-1.948;2023-06-22T11:33:46;25.00;53.70
74520;DHT22;63002;48.134;-1.948;2023-06-22T11:36:14;25.00;53.60
74520;DHT22;63002;48.134;-1.948;2023-06-22T11:38:41;25.00;53.60
74520;DHT22;63002;48.134;-1.948;2023-06-22T11:41:08;25.00;53.50
74520;DHT22;63002;48.134;-1.948;2023-06-22T11:43:34;25.10;53.60
74520;DHT22;63002;48.134;-1.948;2023-06-22T11:46:02;25.10;53.60
74520;DHT22;63002;48.134;-1.948;2023-06-22T11:48:28;25.20;53.50
74520;DHT22;63002;48.134;-1.948;2023-06-22T11:50:55;25.20;53.40
74520;DHT22;63002;48.134;-1.948;2023-06-22T11:53:25;25.20;53.40
74520;DHT22;63002;48.134;-1.948;2023-06-22T11:55:51;25.20;53.30
74520;DHT22;63002;48.134;-1.948;2023-06-22T11:58:19;25.20;53.40
74520;DHT22;63002;48.134;-1.948;2023-06-22T12:00:45;25.20;53.40
74520;DHT22;63002;48.134;-1.948;2023-06-22T12:03:11;25.30;53.30
74520;DHT22;63002;48.134;-1.948;2023-06-22T12:05:38;25.30;53.30
74520;DHT22;63002;48.134;-1.948;2023-06-22T12:08:04;25.30;53.30
74520;DHT22;63002;48.134;-1.948;2023-06-22T12:10:33;25.30;53.30
74520;DHT22;63002;48.134;-1.948;2023-06-22T12:13:00;25.30;53.20
74520;DHT22;63002;48.134;-1.948;2023-06-22T12:15:31;25.40;53.20
74520;DHT22;63002;48.134;-1.948;2023-06-22T12:17:57;25.40;53.20
74520;DHT22;63002;48.134;-1.948;2023-06-22T12:20:23;25.40;53.20
74520;DHT22;63002;48.134;-1.948;2023-06-22T12:22:52;25.40;53.20
74520;DHT22;63002;48.134;-1.948;2023-06-22T12:25:21;25.40;53.20
74520;DHT22;63002;48.134;-1.948;2023-06-22T12:27:48;25.40;53.20
74520;DHT22;63002;48.134;-1.948;2023-06-22T12:30:21;25.40;53.10
74520;DHT22;63002;48.134;-1.948;2023-06-22T12:32:48;25.40;53.10
74520;DHT22;63002;48.134;-1.948;2023-06-22T12:35:16;25.40;53.10
74520;DHT22;63002;48.134;-1.948;2023-06-22T12:37:42;25.40;53.10
74520;DHT22;63002;48.134;-1.948;2023-06-22T12:40:11;25.40;53.20
74520;DHT22;63002;48.134;-1.948;2023-06-22T12:42:38;25.40;53.10
74520;DHT22;63002;48.134;-1.948;2023-06-22T12:45:06;25.40;53.10
74520;DHT22;63002;48.134;-1.948;2023-06-22T12:47:32;25.40;53.10
74520;DHT22;63002;48.134;-1.948;2023-06-22T12:49:58;25.50;53.10
74520;DHT22;63002;48.134;-1.948;2023-06-22T12:52:23;25.50;53.10
74520;DHT22;63002;48.134;-1.948;2023-06-22T12:54:49;25.50;53.10
74520;DHT22;63002;48.134;-1.948;2023-06-22T12:57:15;25.40;53.20
74520;DHT22;63002;48.134;-1.948;2023-06-22T12:59:43;25.40;53.20
74520;DHT22;63002;48.134;-1.948;2023-06-22T13:02:08;25.40;53.30
74520;DHT22;63002;48.134;-1.948;2023-06-22T13:04:34;25.40;53.30
74520;DHT22;63002;48.134;-1.948;2023-06-22T13:07:00;25.40;53.30
74520;DHT22;63002;48.134;-1.948;2023-06-22T13:09:26;25.40;53.40
74520;DHT22;63002;48.134;-1.948;2023-06-22T13:11:52;25.40;53.40
74520;DHT22;63002;48.134;-1.948;2023-06-22T13:14:18;25.40;53.40
74520;DHT22;63002;48.134;-1.948;2023-06-22T13:16:44;25.40;53.40
74520;DHT22;63002;48.134;-1.948;2023-06-22T13:19:10;25.30;53.50
74520;DHT22;63002;48.134;-1.948;2023-06-22T13:21:35;25.30;53.60
74520;DHT22;63002;48.134;-1.948;2023-06-22T13:24:01;25.30;53.70
74520;DHT22;63002;48.134;-1.948;2023-06-22T13:26:27;25.30;53.70
74520;DHT22;63002;48.134;-1.948;2023-06-22T13:28:56;25.30;53.80
74520;DHT22;63002;48.134;-1.948;2023-06-22T13:31:23;25.30;53.80
74520;DHT22;63002;48.134;-1.948;2023-06-22T13:33:49;25.20;54.00
74520;DHT22;63002;48.134;-1.948;2023-06-22T13:36:18;25.20;53.90
74520;DHT22;63002;48.134;-1.948;2023-06-22T13:38:45;25.20;54.00
74520;DHT22;63002;48.134;-1.948;2023-06-22T13:41:13;25.30;53.90
74520;DHT22;63002;48.134;-1.948;2023-06-22T13:43:40;25.30;53.80
74520;DHT22;63002;48.134;-1.948;2023-06-22T13:46:09;25.30;53.90
74520;DHT22;63002;48.134;-1.948;2023-06-22T13:48:39;25.30;53.80
74520;DHT22;63002;48.134;-1.948;2023-06-22T13:51:06;25.40;53.60
74520;DHT22;63002;48.134;-1.948;2023-06-22T13:53:38;25.40;53.50
74520;DHT22;63002;48.134;-1.948;2023-06-22T13:56:09;25.50;53.50
74520;DHT22;63002;48.134;-1.948;2023-06-22T13:58:36;25.50;53.40
74520;DHT22;63002;48.134;-1.948;2023-06-22T14:01:03;25.40;53.70
74520;DHT22;63002;48.134;-1.948;2023-06-22T14:03:29;25.40;53.70
74520;DHT22;63002;48.134;-1.948;2023-06-22T14:05:55;25.50;54.00
74520;DHT22;63002;48.134;-1.948;2023-06-22T14:08:22;25.50;54.20
74520;DHT22;63002;48.134;-1.948;2023-06-22T14:10:51;25.60;54.10
74520;DHT22;63002;48.134;-1.948;2023-06-22T14:13:36;25.60;54.00
74520;DHT22;63002;48.134;-1.948;2023-06-22T14:16:05;25.60;53.90
74520;DHT22;63002;48.134;-1.948;2023-06-22T14:18:38;25.60;54.00
74520;DHT22;63002;48.134;-1.948;2023-06-22T14:21:09;25.70;54.10
74520;DHT22;63002;48.134;-1.948;2023-06-22T14:23:40;25.70;54.20
74520;DHT22;63002;48.134;-1.948;2023-06-22T14:26:14;25.60;54.20
74520;DHT22;63002;48.134;-1.948;2023-06-22T14:28:44;25.70;54.30
74520;DHT22;63002;48.134;-1.948;2023-06-22T14:31:21;25.70;54.20
74520;DHT22;63002;48.134;-1.948;2023-06-22T14:33:56;25.70;54.20
74520;DHT22;63002;48.134;-1.948;2023-06-22T14:36:32;25.80;54.10
74520;DHT22;63002;48.134;-1.948;2023-06-22T14:39:01;25.80;54.00
74520;DHT22;63002;48.134;-1.948;2023-06-22T14:41:30;25.80;54.00
74520;DHT22;63002;48.134;-1.948;2023-06-22T14:44:04;25.80;53.90
74520;DHT22;63002;48.134;-1.948;2023-06-22T14:46:44;25.90;53.90
74520;DHT22;63002;48.134;-1.948;2023-06-22T14:49:16;25.80;53.90
74520;DHT22;63002;48.134;-1.948;2023-06-22T14:51:43;25.90;53.80
74520;DHT22;63002;48.134;-1.948;2023-06-22T14:54:11;25.90;53.80
74520;DHT22;63002;48.134;-1.948;2023-06-22T14:56:41;25.80;54.00
74520;DHT22;63002;48.134;-1.948;2023-06-22T14:59:14;25.90;54.00
74520;DHT22;63002;48.134;-1.948;2023-06-22T15:01:42;25.90;54.00
74520;DHT22;63002;48.134;-1.948;2023-06-22T15:04:09;25.90;54.10
74520;DHT22;63002;48.134;-1.948;2023-06-22T15:06:40;25.90;54.10
74520;DHT22;63002;48.134;-1.948;2023-06-22T15:09:11;25.90;54.10
74520;DHT22;63002;48.134;-1.948;2023-06-22T15:11:38;25.80;54.10
74520;DHT22;63002;48.134;-1.948;2023-06-22T15:14:06;25.90;53.90
74520;DHT22;63002;48.134;-1.948;2023-06-22T15:16:35;25.90;53.90
74520;DHT22;63002;48.134;-1.948;2023-06-22T15:19:03;25.90;53.80
74520;DHT22;63002;48.134;-1.948;2023-06-22T15:21:31;25.90;53.80
74520;DHT22;63002;48.134;-1.948;2023-06-22T15:24:00;25.90;53.90
74520;DHT22;63002;48.134;-1.948;2023-06-22T15:26:29;25.80;53.90
74520;DHT22;63002;48.134;-1.948;2023-06-22T15:28:57;25.80;53.90
74520;DHT22;63002;48.134;-1.948;2023-06-22T15:31:27;25.80;53.90
74520;DHT22;63002;48.134;-1.948;2023-06-22T15:33:55;25.80;53.90
74520;DHT22;63002;48.134;-1.948;2023-06-22T15:36:23;25.80;54.00
74520;DHT22;63002;48.134;-1.948;2023-06-22T15:38:54;25.80;54.10
74520;DHT22;63002;48.134;-1.948;2023-06-22T15:41:30;25.80;54.10
74520;DHT22;63002;48.134;-1.948;2023-06-22T15:43:59;25.90;53.90
74520;DHT22;63002;48.134;-1.948;2023-06-22T15:46:26;25.80;54.00
74520;DHT22;63002;48.134;-1.948;2023-06-22T15:48:56;25.80;54.00
74520;DHT22;63002;48.134;-1.948;2023-06-22T15:51:23;25.80;54.00
74520;DHT22;63002;48.134;-1.948;2023-06-22T15:53:51;25.80;54.00
74520;DHT22;63002;48.134;-1.948;2023-06-22T15:56:18;25.80;54.10
74520;DHT22;63002;48.134;-1.948;2023-06-22T15:58:50;25.80;54.10
74520;DHT22;63002;48.134;-1.948;2023-06-22T16:01:30;25.80;54.10
74520;DHT22;63002;48.134;-1.948;2023-06-22T16:04:17;25.80;54.10
74520;DHT22;63002;48.134;-1.948;2023-06-22T16:06:45;25.80;54.00
74520;DHT22;63002;48.134;-1.948;2023-06-22T16:09:16;25.80;54.10
74520;DHT22;63002;48.134;-1.948;2023-06-22T16:11:44;25.80;54.10
74520;DHT22;63002;48.134;-1.948;2023-06-22T16:14:12;25.80;54.10
74520;DHT22;63002;48.134;-1.948;2023-06-22T16:16:40;25.80;54.10
74520;DHT22;63002;48.134;-1.948;2023-06-22T16:19:09;25.80;54.10
74520;DHT22;63002;48.134;-1.948;2023-06-22T16:21:43;25.80;54.00
74520;DHT22;63002;48.134;-1.948;2023-06-22T16:24:13;25.80;53.90
74520;DHT22;63002;48.134;-1.948;2023-06-22T16:26:42;25.90;53.90
74520;DHT22;63002;48.134;-1.948;2023-06-22T16:29:11;25.90;53.80
74520;DHT22;63002;48.134;-1.948;2023-06-22T16:31:38;25.90;53.80
74520;DHT22;63002;48.134;-1.948;2023-06-22T16:34:05;25.90;53.80
74520;DHT22;63002;48.134;-1.948;2023-06-22T16:36:32;25.90;53.80
74520;DHT22;63002;48.134;-1.948;2023-06-22T16:38:59;25.90;53.90
74520;DHT22;63002;48.134;-1.948;2023-06-22T16:41:26;25.80;53.90
74520;DHT22;63002;48.134;-1.948;2023-06-22T16:43:56;25.90;53.90
74520;DHT22;63002;48.134;-1.948;2023-06-22T16:46:32;25.90;53.90
74520;DHT22;63002;48.134;-1.948;2023-06-22T16:49:01;25.90;53.90
74520;DHT22;63002;48.134;-1.948;2023-06-22T16:51:29;26.00;53.80
74520;DHT22;63002;48.134;-1.948;2023-06-22T16:53:58;26.00;53.60
74520;DHT22;63002;48.134;-1.948;2023-06-22T16:56:27;26.00;53.50
74520;DHT22;63002;48.134;-1.948;2023-06-22T16:58:58;26.00;53.40
74520;DHT22;63002;48.134;-1.948;2023-06-22T17:01:27;26.00;53.40
74520;DHT22;63002;48.134;-1.948;2023-06-22T17:04:04;26.00;53.30
74520;DHT22;63002;48.134;-1.948;2023-06-22T17:06:30;26.00;53.30
74520;DHT22;63002;48.134;-1.948;2023-06-22T17:09:00;25.90;53.50
74520;DHT22;63002;48.134;-1.948;2023-06-22T17:11:29;26.00;53.30
74520;DHT22;63002;48.134;-1.948;2023-06-22T17:14:01;26.00;53.30
74520;DHT22;63002;48.134;-1.948;2023-06-22T17:16:31;26.00;53.10
74520;DHT22;63002;48.134;-1.948;2023-06-22T17:19:00;26.00;53.00
74520;DHT22;63002;48.134;-1.948;2023-06-22T17:21:32;26.00;53.00
74520;DHT22;63002;48.134;-1.948;2023-06-22T17:24:01;26.00;52.80
74520;DHT22;63002;48.134;-1.948;2023-06-22T17:26:31;26.00;52.90
74520;DHT22;63002;48.134;-1.948;2023-06-22T17:28:58;26.00;52.70
74520;DHT22;63002;48.134;-1.948;2023-06-22T17:31:39;26.00;52.70
74520;DHT22;63002;48.134;-1.948;2023-06-22T17:34:30;26.00;52.70
74520;DHT22;63002;48.134;-1.948;2023-06-22T17:37:00;26.00;52.80
74520;DHT22;63002;48.134;-1.948;2023-06-22T17:39:29;26.00;52.80
74520;DHT22;63002;48.134;-1.948;2023-06-22T17:42:00;26.00;52.70
74520;DHT22;63002;48.134;-1.948;2023-06-22T17:44:28;26.00;52.80
74520;DHT22;63002;48.134;-1.948;2023-06-22T17:47:23;26.00;52.90
74520;DHT22;63002;48.134;-1.948;2023-06-22T17:49:51;26.00;52.90
74520;DHT22;63002;48.134;-1.948;2023-06-22T17:52:19;26.00;52.90
74520;DHT22;63002;48.134;-1.948;2023-06-22T17:54:48;26.00;53.00
74520;DHT22;63002;48.134;-1.948;2023-06-22T17:57:48;26.00;53.10
74520;DHT22;63002;48.134;-1.948;2023-06-22T18:00:20;26.00;53.10
74520;DHT22;63002;48.134;-1.948;2023-06-22T18:03:02;26.00;53.00
74520;DHT22;63002;48.134;-1.948;2023-06-22T18:05:40;25.90;53.20
74520;DHT22;63002;48.134;-1.948;2023-06-22T18:08:33;26.00;53.00
74520;DHT22;63002;48.134;-1.948;2023-06-22T18:11:05;26.00;52.90
74520;DHT22;63002;48.134;-1.948;2023-06-22T18:13:36;26.00;51.80
74520;DHT22;63002;48.134;-1.948;2023-06-22T18:16:05;25.90;51.70
74520;DHT22;63002;48.134;-1.948;2023-06-22T18:18:36;25.80;51.60
74520;DHT22;63002;48.134;-1.948;2023-06-22T18:21:07;25.80;50.90
74520;DHT22;63002;48.134;-1.948;2023-06-22T18:23:36;25.70;50.80
74520;DHT22;63002;48.134;-1.948;2023-06-22T18:26:05;25.60;50.60
74520;DHT22;63002;48.134;-1.948;2023-06-22T18:28:35;25.60;50.30
74520;DHT22;63002;48.134;-1.948;2023-06-22T18:31:04;25.60;50.30
74520;DHT22;63002;48.134;-1.948;2023-06-22T18:33:33;25.50;49.80
74520;DHT22;63002;48.134;-1.948;2023-06-22T18:36:01;25.50;50.10
74520;DHT22;63002;48.134;-1.948;2023-06-22T18:38:29;25.60;49.90
74520;DHT22;63002;48.134;-1.948;2023-06-22T18:40:58;25.50;49.30
74520;DHT22;63002;48.134;-1.948;2023-06-22T18:43:28;25.40;50.20
74520;DHT22;63002;48.134;-1.948;2023-06-22T18:46:32;25.50;50.20
74520;DHT22;63002;48.134;-1.948;2023-06-22T18:49:21;25.60;49.80
74520;DHT22;63002;48.134;-1.948;2023-06-22T18:54:23;25.60;49.70
74520;DHT22;63002;48.134;-1.948;2023-06-22T18:56:57;25.50;49.70
74520;DHT22;63002;48.134;-1.948;2023-06-22T18:59:50;25.50;49.70
74520;DHT22;63002;48.134;-1.948;2023-06-22T19:10:28;25.40;49.40
74520;DHT22;63002;48.134;-1.948;2023-06-22T19:13:20;25.30;49.70
74520;DHT22;63002;48.134;-1.948;2023-06-22T19:15:47;25.30;49.60
74520;DHT22;63002;48.134;-1.948;2023-06-22T19:18:20;25.20;49.60
74520;DHT22;63002;48.134;-1.948;2023-06-22T19:20:53;25.20;49.60
74520;DHT22;63002;48.134;-1.948;2023-06-22T19:23:30;25.20;49.40
74520;DHT22;63002;48.134;-1.948;2023-06-22T19:26:14;25.10;49.30
74520;DHT22;63002;48.134;-1.948;2023-06-22T19:28:53;25.10;49.40
74520;DHT22;63002;48.134;-1.948;2023-06-22T19:31:21;25.00;49.50
74520;DHT22;63002;48.134;-1.948;2023-06-22T19:34:08;25.10;49.60
74520;DHT22;63002;48.134;-1.948;2023-06-22T19:36:36;25.00;49.90
74520;DHT22;63002;48.134;-1.948;2023-06-22T19:39:06;25.10;49.80
74520;DHT22;63002;48.134;-1.948;2023-06-22T19:41:44;25.10;49.80
74520;DHT22;63002;48.134;-1.948;2023-06-22T19:44:16;25.10;49.80
74520;DHT22;63002;48.134;-1.948;2023-06-22T19:46:46;25.10;49.70
74520;DHT22;63002;48.134;-1.948;2023-06-22T19:49:16;25.10;49.70
74520;DHT22;63002;48.134;-1.948;2023-06-22T19:51:46;25.10;49.80
74520;DHT22;63002;48.134;-1.948;2023-06-22T19:54:15;25.10;49.70
74520;DHT22;63002;48.134;-1.948;2023-06-22T19:56:44;25.10;49.80
74520;DHT22;63002;48.134;-1.948;2023-06-22T19:59:17;25.10;49.70
74520;DHT22;63002;48.134;-1.948;2023-06-22T20:01:49;25.10;49.80
74520;DHT22;63002;48.134;-1.948;2023-06-22T20:04:17;25.10;49.80
74520;DHT22;63002;48.134;-1.948;2023-06-22T20:07:02;25.10;49.80
74520;DHT22;63002;48.134;-1.948;2023-06-22T20:09:32;25.00;49.90
74520;DHT22;63002;48.134;-1.948;2023-06-22T20:12:25;25.10;49.90
74520;DHT22;63002;48.134;-1.948;2023-06-22T20:14:55;25.10;50.00
74520;DHT22;63002;48.134;-1.948;2023-06-22T20:17:23;25.10;50.00
74520;DHT22;63002;48.134;-1.948;2023-06-22T20:19:54;25.00;50.10
74520;DHT22;63002;48.134;-1.948;2023-06-22T20:22:21;24.90;50.20
74520;DHT22;63002;48.134;-1.948;2023-06-22T20:24:47;24.90;50.30
74520;DHT22;63002;48.134;-1.948;2023-06-22T20:27:13;25.00;50.40
74520;DHT22;63002;48.134;-1.948;2023-06-22T20:29:40;24.90;50.30
74520;DHT22;63002;48.134;-1.948;2023-06-22T20:32:13;24.80;50.50
74520;DHT22;63002;48.134;-1.948;2023-06-22T20:34:43;24.90;50.60
74520;DHT22;63002;48.134;-1.948;2023-06-22T20:37:14;25.00;50.50
74520;DHT22;63002;48.134;-1.948;2023-06-22T20:39:43;25.00;50.60